Time;durP1;ratioP1;P1;durP2;ratioP2;P2;SDS_P1;SDS_P2;PMS_P1;PMS_P2;Temp;Humidity;BMP_temperature;BMP_pressure;BME280_temperature;BME280_humidity;BME280_pressure;Samples;Min_cycle;Max_cycle;Signal;HPM_P1;HPM_P2
2022/11/21 00:01:11;;;;;;;4.75;1.63;;;6.70;99.90;;;;;;4993343;28;20410;-82
2022/11/21 00:03:37;;;;;;;10.60;1.73;;;6.60;99.90;;;;;;4994097;28;20039;-83
2022/11/21 00:06:04;;;;;;;6.28;2.10;;;6.70;99.90;;;;;;4993383;28;20388;-82
2022/11/21 00:08:30;;;;;;;4.85;1.30;;;6.70;99.90;;;;;;4994210;28;20026;-83
2022/11/21 00:10:58;;;;;;;5.40;1.63;;;6.80;99.90;;;;;;4993266;28;20034;-82
2022/11/21 00:13:24;;;;;;;7.60;1.60;;;6.80;98.90;;;;;;4993676;28;20380;-82
2022/11/21 00:15:50;;;;;;;5.40;1.50;;;6.80;99.50;;;;;;4975993;28;20113;-82
2022/11/21 00:18:17;;;;;;;7.18;1.42;;;6.80;98.40;;;;;;4976385;28;20461;-82
2022/11/21 00:20:43;;;;;;;6.85;1.65;;;6.90;98.70;;;;;;4993838;28;20041;-83
2022/11/21 00:23:10;;;;;;;8.65;1.27;;;6.90;98.50;;;;;;4992572;28;20031;-83
2022/11/21 00:25:37;;;;;;;7.65;1.55;;;6.90;95.70;;;;;;4993750;28;20444;-82
2022/11/21 00:28:04;;;;;;;10.75;3.90;;;6.90;99.80;;;;;;4992540;28;20038;-83
2022/11/21 00:30:30;;;;;;;2.05;0.90;;;6.80;99.20;;;;;;4993926;28;20483;-83
2022/11/21 00:32:57;;;;;;;4.35;1.23;;;6.80;99.90;;;;;;4992605;28;20049;-82
2022/11/21 00:35:23;;;;;;;3.28;0.88;;;6.80;99.90;;;;;;4993354;28;20030;-82
2022/11/21 00:37:50;;;;;;;5.38;1.30;;;6.80;99.90;;;;;;4974967;28;20045;-80
2022/11/21 00:40:16;;;;;;;6.32;1.65;;;6.80;99.90;;;;;;4993194;28;20034;-82
2022/11/21 00:42:43;;;;;;;8.45;1.80;;;6.80;99.90;;;;;;4993100;28;20034;-82
2022/11/21 00:45:09;;;;;;;5.07;1.50;;;6.80;99.90;;;;;;4974896;28;20034;-83
2022/11/21 00:47:35;;;;;;;6.07;1.48;;;6.70;99.90;;;;;;4992915;28;20030;-83
2022/11/21 00:50:02;;;;;;;7.80;1.92;;;6.70;99.90;;;;;;4975197;28;20037;-82
2022/11/21 00:52:28;;;;;;;3.30;1.08;;;6.60;99.90;;;;;;4993463;28;20027;-83
2022/11/21 00:54:54;;;;;;;4.07;1.30;;;6.60;99.90;;;;;;4992057;28;20365;-82
2022/11/21 00:57:20;;;;;;;5.32;1.30;;;6.50;99.90;;;;;;4992992;28;20396;-82
2022/11/21 00:59:46;;;;;;;4.97;1.20;;;6.40;99.90;;;;;;4993258;28;20042;-83
2022/11/21 01:02:12;;;;;;;5.72;1.25;;;6.40;99.90;;;;;;4974158;28;20054;-83
2022/11/21 01:04:39;;;;;;;2.10;1.20;;;6.40;99.90;;;;;;4993069;28;20065;-84
2022/11/21 01:07:05;;;;;;;7.35;2.45;;;6.40;99.90;;;;;;4991950;28;20048;-83
2022/11/21 01:09:31;;;;;;;4.43;0.85;;;6.40;99.90;;;;;;4992885;28;20038;-83
2022/11/21 01:11:57;;;;;;;3.13;0.75;;;6.40;99.90;;;;;;4974339;28;20396;-82
2022/11/21 01:14:23;;;;;;;3.78;1.42;;;6.40;99.90;;;;;;4992858;28;20460;-83
2022/11/21 01:16:49;;;;;;;4.85;1.05;;;6.30;99.90;;;;;;4975029;28;20034;-80
2022/11/21 01:19:15;;;;;;;4.18;1.17;;;6.30;99.90;;;;;;4992115;28;20039;-82
2022/11/21 01:21:42;;;;;;;4.63;1.15;;;6.20;99.90;;;;;;4975182;28;20038;-83
2022/11/21 01:24:10;;;;;;;2.67;0.82;;;6.10;99.90;;;;;;4974680;28;20038;-82
2022/11/21 01:26:36;;;;;;;4.13;0.90;;;6.10;99.90;;;;;;4992747;28;20456;-82
2022/11/21 01:29:03;;;;;;;4.90;1.17;;;6.00;99.90;;;;;;4974000;28;20042;-82
2022/11/21 01:31:30;;;;;;;4.60;1.20;;;5.90;99.90;;;;;;4992520;28;20037;-83
2022/11/21 01:33:57;;;;;;;3.70;1.23;;;5.90;99.90;;;;;;4991983;28;20038;-82
2022/11/21 01:36:28;;;;;;;3.75;0.98;;;5.80;99.90;;;;;;4992258;28;20026;-83
2022/11/21 01:38:57;;;;;;;7.70;1.40;;;5.80;99.90;;;;;;4974246;28;20045;-82
2022/11/21 01:41:28;;;;;;;5.65;1.55;;;5.70;99.90;;;;;;4992540;28;20034;-83
2022/11/21 01:43:54;;;;;;;5.82;1.58;;;5.70;99.90;;;;;;4996223;28;20042;-81
2022/11/21 01:46:21;;;;;;;8.68;1.60;;;5.60;99.90;;;;;;4993131;28;20419;-83
2022/11/21 01:49:10;;;;;;;5.95;1.67;;;5.50;99.90;;;;;;4992725;28;20037;-83
2022/11/21 01:51:51;;;;;;;8.10;2.35;;;5.50;99.90;;;;;;4992198;28;20428;-82
2022/11/21 01:54:40;;;;;;;6.72;1.75;;;5.50;99.90;;;;;;4991754;28;20041;-82
2022/11/21 01:57:20;;;;;;;3.83;1.35;;;5.50;99.90;;;;;;4974061;28;20092;-82
2022/11/21 01:59:54;;;;;;;4.72;1.20;;;5.60;99.90;;;;;;4974855;28;20042;-83
2022/11/21 02:02:24;;;;;;;5.75;2.03;;;5.60;99.90;;;;;;4992209;28;20049;-82
2022/11/21 02:04:52;;;;;;;4.75;1.40;;;5.60;99.90;;;;;;4992250;28;20039;-82
2022/11/21 02:07:21;;;;;;;9.25;1.42;;;5.60;99.90;;;;;;4974519;28;20045;-82
2022/11/21 02:09:53;;;;;;;5.50;2.15;;;5.60;99.90;;;;;;4992293;28;20034;-83
2022/11/21 02:12:31;;;;;;;7.03;1.67;;;5.70;99.90;;;;;;4974653;28;20053;-82
2022/11/21 02:14:58;;;;;;;4.28;1.73;;;5.70;99.90;;;;;;4995266;28;20049;-81
2022/11/21 02:17:27;;;;;;;4.53;1.40;;;5.80;99.90;;;;;;4994615;28;20039;-82
2022/11/21 02:20:00;;;;;;;4.95;1.63;;;5.80;99.90;;;;;;4995819;28;20399;-80
2022/11/21 02:22:48;;;;;;;8.70;1.90;;;5.90;99.90;;;;;;4995908;28;20030;-82
2022/11/21 02:25:18;;;;;;;5.00;2.22;;;6.00;99.90;;;;;;4978058;28;20045;-82
2022/11/21 02:27:47;;;;;;;7.47;2.42;;;6.00;99.90;;;;;;4996200;28;20034;-81
2022/11/21 02:30:14;;;;;;;6.20;2.10;;;6.00;99.90;;;;;;4995010;28;20053;-81
2022/11/21 02:32:46;;;;;;;8.38;1.63;;;6.00;99.90;;;;;;4996255;28;20038;-82
2022/11/21 02:35:13;;;;;;;;;;;5.90;99.90;;;;;;4978409;28;20058;-82
2022/11/21 02:37:40;;;;;;;6.30;2.00;;;5.90;99.90;;;;;;4997762;28;20286;-82
2022/11/21 02:40:16;;;;;;;5.32;1.40;;;5.80;99.90;;;;;;4995664;28;20085;-81
2022/11/21 02:42:59;;;;;;;3.65;1.58;;;5.80;99.90;;;;;;4995611;28;20041;-82
2022/11/21 02:45:33;;;;;;;7.30;2.30;;;5.80;99.90;;;;;;4995414;28;20030;-82
2022/11/21 02:47:59;;;;;;;4.03;1.30;;;5.80;99.90;;;;;;4995234;28;20387;-81
2022/11/21 02:50:29;;;;;;;4.68;1.75;;;5.80;99.90;;;;;;4999544;28;20037;-82
2022/11/21 02:52:55;;;;;;;6.57;2.00;;;5.90;99.90;;;;;;4981249;28;20039;-81
2022/11/21 02:55:23;;;;;;;4.60;1.60;;;5.90;99.90;;;;;;5007700;28;20030;-83
2022/11/21 02:57:49;;;;;;;7.50;2.65;;;5.90;99.90;;;;;;5002325;28;20049;-82
2022/11/21 03:00:16;;;;;;;6.80;2.05;;;5.90;99.90;;;;;;5007185;28;20029;-83
2022/11/21 03:02:43;;;;;;;4.88;1.75;;;6.00;99.90;;;;;;4977941;28;20030;-82
2022/11/21 03:05:12;;;;;;;8.60;1.63;;;6.00;99.90;;;;;;4994209;28;20034;-82
2022/11/21 03:07:39;;;;;;;8.93;2.55;;;6.10;99.90;;;;;;4995392;28;20041;-84
2022/11/21 03:10:06;;;;;;;6.10;1.00;;;6.20;99.90;;;;;;4976254;28;20046;-82
2022/11/21 03:12:34;;;;;;;2.60;1.00;;;6.20;99.90;;;;;;4994836;28;20384;-82
2022/11/21 03:15:00;;;;;;;2.63;0.90;;;6.20;99.90;;;;;;4993748;28;20078;-82
2022/11/21 03:17:26;;;;;;;3.08;1.05;;;6.20;99.90;;;;;;4977166;28;20038;-83
2022/11/21 03:19:52;;;;;;;6.05;1.98;;;6.20;99.90;;;;;;4976807;28;20049;-83
2022/11/21 03:22:19;;;;;;;3.72;1.10;;;6.20;99.90;;;;;;4993928;28;20110;-83
2022/11/21 03:24:45;;;;;;;3.13;1.08;;;6.20;99.90;;;;;;4993442;28;20042;-83
2022/11/21 03:27:11;;;;;;;3.97;1.70;;;6.20;99.90;;;;;;4993861;28;20102;-83
2022/11/21 03:29:37;;;;;;;2.88;1.42;;;6.20;99.90;;;;;;4994318;28;20053;-84
2022/11/21 03:32:03;;;;;;;1.83;0.98;;;6.20;99.90;;;;;;4992707;28;20030;-83
2022/11/21 03:34:29;;;;;;;4.82;1.63;;;6.20;99.90;;;;;;4976879;28;20049;-84
2022/11/21 03:36:55;;;;;;;4.70;1.52;;;6.20;99.90;;;;;;4994409;28;20026;-84
2022/11/21 03:39:22;;;;;;;4.57;1.38;;;6.20;99.90;;;;;;4993561;28;20062;-83
2022/11/21 03:41:48;;;;;;;4.05;1.80;;;6.20;99.90;;;;;;4993450;28;20046;-83
2022/11/21 03:44:15;;;;;;;7.85;2.10;;;6.20;99.90;;;;;;4976377;28;20053;-83
2022/11/21 03:46:44;;;;;;;4.90;1.67;;;6.20;99.90;;;;;;4977274;28;20049;-84
2022/11/21 03:49:12;;;;;;;5.50;2.30;;;6.20;99.90;;;;;;4976459;28;20030;-83
2022/11/21 03:51:39;;;;;;;6.38;1.83;;;6.20;99.90;;;;;;4994454;28;20045;-83
2022/11/21 03:54:06;;;;;;;5.75;2.35;;;6.20;99.90;;;;;;4998643;28;20038;-83
2022/11/21 03:56:33;;;;;;;8.45;2.95;;;6.20;99.90;;;;;;4977243;28;20467;-83
2022/11/21 03:58:59;;;;;;;8.48;2.67;;;6.10;99.90;;;;;;4976666;28;20031;-82
2022/11/21 04:01:25;;;;;;;5.28;2.35;;;6.10;99.90;;;;;;4993624;28;20030;-83
2022/11/21 04:03:52;;;;;;;7.00;2.38;;;6.10;99.90;;;;;;4976473;28;20086;-83
2022/11/21 04:06:19;;;;;;;6.40;2.58;;;6.00;99.90;;;;;;4992123;28;20472;-83
2022/11/21 04:08:46;;;;;;;9.43;1.90;;;5.90;99.90;;;;;;4994364;28;20030;-83
2022/11/21 04:11:12;;;;;;;4.85;2.10;;;5.80;99.90;;;;;;4975537;28;20411;-83
2022/11/21 04:13:38;;;;;;;8.07;2.47;;;5.80;99.90;;;;;;4995162;28;20034;-84
2022/11/21 04:16:05;;;;;;;3.90;1.50;;;5.80;99.90;;;;;;5004550;28;20042;-83
2022/11/21 04:18:33;;;;;;;6.25;1.75;;;5.90;99.90;;;;;;4995855;28;20042;-83
2022/11/21 04:21:02;;;;;;;5.18;1.60;;;5.80;99.90;;;;;;4995200;28;20031;-83
2022/11/21 04:23:28;;;;;;;6.53;1.98;;;5.70;99.90;;;;;;4994213;28;20030;-83
2022/11/21 04:25:54;;;;;;;7.53;1.45;;;5.70;99.90;;;;;;4994467;28;20394;-83
2022/11/21 04:28:21;;;;;;;3.42;1.08;;;5.70;99.90;;;;;;4975186;28;20042;-83
2022/11/21 04:30:47;;;;;;;6.45;1.67;;;5.70;99.90;;;;;;4993550;28;20472;-83
2022/11/21 04:33:15;;;;;;;5.53;2.10;;;5.80;99.90;;;;;;4975540;28;20365;-82
2022/11/21 04:35:42;;;;;;;5.07;2.65;;;5.90;99.90;;;;;;4975723;28;20038;-83
2022/11/21 04:38:09;;;;;;;4.20;1.55;;;5.90;99.90;;;;;;4975094;28;20038;-82
2022/11/21 04:40:35;;;;;;;5.80;2.13;;;6.00;99.90;;;;;;4975749;28;20038;-83
2022/11/21 04:43:02;;;;;;;6.35;2.08;;;6.10;99.90;;;;;;4975945;28;20034;-82
2022/11/21 04:45:28;;;;;;;4.80;1.80;;;6.10;99.90;;;;;;4975589;28;20046;-83
2022/11/21 04:47:54;;;;;;;3.17;1.67;;;6.20;99.90;;;;;;5000239;28;20033;-83
2022/11/21 04:50:21;;;;;;;5.85;1.30;;;6.30;99.90;;;;;;4995036;28;20030;-83
2022/11/21 04:52:55;;;;;;;4.50;1.27;;;6.30;99.90;;;;;;5012694;28;20026;-84
2022/11/21 04:55:24;;;;;;;3.97;0.95;;;6.30;99.90;;;;;;4994340;28;20041;-83
2022/11/21 04:57:50;;;;;;;4.20;1.58;;;6.40;99.90;;;;;;5013591;28;20033;-82
2022/11/21 05:00:17;;;;;;;1.65;0.75;;;6.50;99.90;;;;;;4993668;28;20038;-82
2022/11/21 05:02:44;;;;;;;2.25;0.65;;;6.60;99.90;;;;;;5012760;28;20037;-81
2022/11/21 05:05:10;;;;;;;1.70;0.82;;;6.60;99.90;;;;;;5011886;28;20060;-81
2022/11/21 05:07:37;;;;;;;2.67;1.15;;;6.60;99.90;;;;;;5012936;28;20041;-82
2022/11/21 05:10:05;;;;;;;1.88;0.90;;;6.60;99.90;;;;;;5012399;28;20026;-79
2022/11/21 05:15:16;;;;;;;3.75;1.33;;;6.70;95.10;;;;;;5011443;28;20053;-81
2022/11/21 05:17:43;;;;;;;4.43;1.20;;;6.70;96.80;;;;;;5013055;28;20037;-83
2022/11/21 05:20:10;;;;;;;2.38;1.00;;;6.70;96.90;;;;;;5011873;28;20022;-83
2022/11/21 05:22:36;;;;;;;3.25;1.20;;;6.80;95.70;;;;;;5012541;28;20034;-84
2022/11/21 05:25:04;;;;;;;3.10;0.90;;;6.80;95.70;;;;;;5012254;28;20045;-82
2022/11/21 05:27:30;;;;;;;2.72;0.93;;;6.90;91.60;;;;;;5011999;28;20053;-83
2022/11/21 05:29:56;;;;;;;1.90;0.93;;;6.90;93.20;;;;;;4994336;28;20391;-82
2022/11/21 05:32:23;;;;;;;2.70;1.20;;;6.90;94.80;;;;;;5011386;28;20042;-82
2022/11/21 05:34:49;;;;;;;6.13;1.17;;;6.80;96.40;;;;;;5012789;28;20042;-82
2022/11/21 05:37:15;;;;;;;4.60;0.85;;;6.80;99.30;;;;;;5011631;28;20034;-82
2022/11/21 05:39:42;;;;;;;5.85;1.38;;;6.70;99.90;;;;;;5012422;28;20041;-84
2022/11/21 05:42:08;;;;;;;3.15;1.20;;;6.70;99.90;;;;;;5011725;28;20030;-82
2022/11/21 05:44:34;;;;;;;5.53;1.90;;;6.70;99.90;;;;;;4994367;28;20050;-83
2022/11/21 05:47:00;;;;;;;2.92;1.60;;;6.70;99.90;;;;;;4994242;28;20522;-81
2022/11/21 05:49:26;;;;;;;4.57;1.48;;;6.70;99.90;;;;;;4996998;28;20628;-80
2022/11/21 05:51:52;;;;;;;9.98;1.70;;;6.70;99.90;;;;;;5016003;28;20391;-81
2022/11/21 05:54:18;;;;;;;3.95;1.30;;;6.60;99.90;;;;;;5015167;28;20368;-80
2022/11/21 05:56:44;;;;;;;14.90;3.30;;;6.70;99.90;;;;;;4998331;28;20038;-81
2022/11/21 05:59:11;;;;;;;2.67;1.23;;;6.70;99.90;;;;;;4997475;28;20475;-79
2022/11/21 06:04:22;;;;;;;4.10;2.35;;;6.70;99.90;;;;;;5015748;28;20049;-80
2022/11/21 06:06:48;;;;;;;9.50;2.67;;;6.70;99.90;;;;;;5016520;28;20034;-80
2022/11/21 06:09:14;;;;;;;7.30;1.80;;;6.70;99.90;;;;;;5015436;28;20057;-80
2022/11/21 06:11:40;;;;;;;9.25;1.85;;;6.60;99.90;;;;;;5015709;28;20036;-80
2022/11/21 06:14:06;;;;;;;6.93;1.90;;;6.60;99.90;;;;;;5015809;28;20383;-80
2022/11/21 06:16:32;;;;;;;3.60;1.83;;;6.70;97.60;;;;;;5016664;28;20038;-81
2022/11/21 06:18:59;;;;;;;3.45;1.60;;;6.70;97.70;;;;;;5017553;28;20034;-81
2022/11/21 06:21:27;;;;;;;5.60;1.63;;;6.70;96.50;;;;;;5016030;28;20030;-81
2022/11/21 06:23:56;;;;;;;7.07;2.00;;;6.80;87.60;;;;;;5016535;28;20355;-80
2022/11/21 06:26:24;;;;;;;7.07;1.70;;;6.90;77.30;;;;;;5016326;28;20037;-81
2022/11/21 06:28:51;;;;;;;5.20;1.60;;;7.00;65.90;;;;;;5018035;28;20032;-80
2022/11/21 06:31:23;;;;;;;4.55;1.17;;;7.00;66.80;;;;;;5008788;28;20041;-79
2022/11/21 06:33:57;;;;;;;3.90;1.30;;;7.00;66.00;;;;;;5002288;28;20025;-80
2022/11/21 06:36:23;;;;;;;6.00;1.50;;;7.00;67.80;;;;;;5015532;28;20379;-81
2022/11/21 06:38:51;;;;;;;3.58;1.40;;;7.00;75.00;;;;;;4998299;28;20042;-81
2022/11/21 06:41:23;;;;;;;5.72;1.42;;;6.90;82.40;;;;;;4997955;28;20511;-80
2022/11/21 06:43:49;;;;;;;4.68;1.67;;;6.90;75.50;;;;;;5016521;28;20391;-81
2022/11/21 06:46:16;;;;;;;7.20;1.70;;;6.90;76.60;;;;;;5015794;28;20061;-81
2022/11/21 06:48:42;;;;;;;6.60;1.70;;;6.80;82.90;;;;;;5016172;28;20049;-82
2022/11/21 06:51:19;;;;;;;9.27;1.85;;;6.80;81.30;;;;;;4998291;28;20038;-85
2022/11/21 06:53:47;;;;;;;5.93;1.45;;;6.80;76.80;;;;;;4999308;28;20033;-85
2022/11/21 06:56:14;;;;;;;6.20;1.52;;;6.90;76.00;;;;;;5016289;28;20045;-86
2022/11/21 06:58:40;;;;;;;5.57;1.52;;;6.80;69.70;;;;;;5002415;28;20034;-84
2022/11/21 07:01:08;;;;;;;6.28;1.88;;;6.80;67.90;;;;;;5012768;28;20048;-84
2022/11/21 07:03:35;;;;;;;5.22;1.48;;;6.90;61.00;;;;;;5029044;28;20026;-84
2022/11/21 07:06:02;;;;;;;5.95;2.85;;;6.90;63.60;;;;;;5035388;28;20038;-83
2022/11/21 07:08:30;;;;;;;7.85;2.30;;;6.90;56.30;;;;;;5037701;28;20340;-84
2022/11/21 07:11:01;;;;;;;4.20;1.95;;;6.90;53.50;;;;;;5010610;28;20046;-84
2022/11/21 07:13:27;;;;;;;5.68;1.95;;;6.90;57.50;;;;;;5005026;28;20034;-84
2022/11/21 07:15:55;;;;;;;4.25;1.73;;;6.80;62.20;;;;;;5022121;28;20472;-83
2022/11/21 07:18:21;;;;;;;6.45;3.50;;;6.80;64.40;;;;;;4998226;28;20065;-83
2022/11/21 07:20:48;;;;;;;7.65;2.25;;;6.70;61.80;;;;;;4997947;28;20034;-84
2022/11/21 07:23:14;;;;;;;9.25;2.40;;;6.70;63.70;;;;;;4997527;28;20478;-83
2022/11/21 07:25:41;;;;;;;3.30;1.90;;;6.70;61.00;;;;;;4981389;28;20049;-84
2022/11/21 07:28:08;;;;;;;11.02;4.10;;;6.80;60.10;;;;;;4997848;28;20042;-83
2022/11/21 07:30:35;;;;;;;5.85;1.48;;;6.80;54.10;;;;;;5014690;28;20398;-86
2022/11/21 07:33:04;;;;;;;7.80;3.20;;;6.90;47.40;;;;;;4980275;28;20426;-83
2022/11/21 07:35:32;;;;;;;7.38;1.90;;;6.90;46.80;;;;;;5014011;28;20256;-83
2022/11/21 07:37:58;;;;;;;12.48;6.57;;;6.90;48.30;;;;;;4997519;28;20041;-83
2022/11/21 07:40:25;;;;;;;8.05;3.50;;;6.90;43.90;;;;;;4996622;28;20391;-83
2022/11/21 07:42:51;;;;;;;7.78;2.75;;;6.80;47.70;;;;;;5015484;28;20471;-84
2022/11/21 07:45:18;;;;;;;18.17;8.75;;;6.70;45.90;;;;;;5014013;28;20057;-83
2022/11/21 07:47:44;;;;;;;6.78;3.17;;;6.70;50.50;;;;;;5014549;28;20415;-84
2022/11/21 07:50:11;;;;;;;3.65;2.15;;;6.70;48.70;;;;;;4996751;28;20042;-85
2022/11/21 07:52:38;;;;;;;5.93;2.55;;;6.70;38.30;;;;;;5014639;28;20033;-85
2022/11/21 07:55:05;;;;;;;4.60;1.75;;;6.80;38.80;;;;;;4996472;28;20038;-85
2022/11/21 07:57:31;;;;;;;10.73;3.70;;;6.80;45.00;;;;;;4996616;28;20033;-79
2022/11/21 07:59:57;;;;;;;4.50;2.38;;;6.80;33.80;;;;;;4996870;28;20037;-83
2022/11/21 08:02:25;;;;;;;5.82;2.13;;;6.80;40.60;;;;;;5013665;28;20486;-83
2022/11/21 08:04:52;;;;;;;4.80;1.85;;;6.80;43.00;;;;;;5014289;28;20042;-83
2022/11/21 08:07:21;;;;;;;4.97;2.25;;;6.80;38.10;;;;;;5013420;28;20033;-83
2022/11/21 08:09:47;;;;;;;8.13;3.28;;;6.70;37.20;;;;;;5014187;28;20041;-76
2022/11/21 08:12:14;;;;;;;6.55;2.50;;;6.80;37.60;;;;;;5012348;28;20029;-78
2022/11/21 08:14:40;;;;;;;7.88;1.85;;;6.80;30.50;;;;;;4976215;28;20046;-76
2022/11/21 08:17:06;;;;;;;8.77;2.60;;;6.90;29.40;;;;;;5013327;28;20050;-77
2022/11/21 08:19:33;;;;;;;5.20;1.60;;;6.90;23.80;;;;;;4994822;28;20472;-78
2022/11/21 08:22:00;;;;;;;6.63;1.98;;;6.80;20.50;;;;;;5013160;28;20120;-77
2022/11/21 08:24:26;;;;;;;6.20;2.30;;;6.80;14.70;;;;;;4994920;28;20029;-77
2022/11/21 08:26:53;;;;;;;5.55;2.65;;;6.80;16.80;;;;;;5013048;28;20041;-77
2022/11/21 08:29:19;;;;;;;6.28;3.10;;;6.80;15.70;;;;;;5012176;28;20054;-77
2022/11/21 08:31:45;;;;;;;4.72;1.10;;;6.80;14.60;;;;;;5013222;28;20045;-78
2022/11/21 08:34:11;;;;;;;2.65;1.17;;;6.70;8.10;;;;;;4995919;28;20030;-77
2022/11/21 08:36:38;;;;;;;5.38;1.77;;;6.80;12.00;;;;;;5012935;28;20101;-77
2022/11/21 08:39:04;;;;;;;6.78;1.95;;;6.80;12.90;;;;;;5013507;28;20034;-77
2022/11/21 08:44:15;;;;;;;5.93;2.42;;;6.70;15.00;;;;;;4998081;28;20037;-79
2022/11/21 08:46:41;;;;;;;7.82;3.33;;;6.80;11.80;;;;;;5012406;28;20029;-77
2022/11/21 08:49:08;;;;;;;3.90;1.35;;;6.90;11.70;;;;;;4985139;28;20042;-76
2022/11/21 08:51:34;;;;;;;18.75;9.38;;;7.00;8.00;;;;;;4999852;28;20018;-76
2022/11/21 08:54:01;;;;;;;9.68;3.13;;;7.10;1.20;;;;;;5013957;28;20029;-82
2022/11/21 08:56:27;;;;;;;7.53;2.42;;;7.20;1.00;;;;;;5014250;28;20041;-83
2022/11/21 08:58:54;;;;;;;7.25;2.33;;;7.20;1.00;;;;;;5013660;28;20367;-82
2022/11/21 09:01:21;;;;;;;3.90;1.40;;;7.30;1.00;;;;;;5005382;28;20034;-83
2022/11/21 09:03:48;;;;;;;4.30;2.00;;;7.30;1.00;;;;;;4997426;28;20356;-83
2022/11/21 09:06:14;;;;;;;7.70;2.22;;;7.20;1.00;;;;;;4997391;28;20045;-83
2022/11/21 09:08:40;;;;;;;6.28;2.83;;;7.30;1.10;;;;;;5012350;28;20049;-78
2022/11/21 09:11:08;;;;;;;5.47;2.53;;;7.40;1.00;;;;;;5013376;28;20025;-78
2022/11/21 09:13:35;;;;;;;6.22;2.08;;;7.40;1.00;;;;;;4994711;28;20029;-78
2022/11/21 09:18:47;;;;;;;8.27;2.97;;;7.40;1.00;;;;;;4995148;28;20064;-78
2022/11/21 09:21:14;;;;;;;7.13;2.67;;;7.30;1.00;;;;;;5013197;28;20026;-80
2022/11/21 09:23:41;;;;;;;3.38;1.13;;;7.30;1.00;;;;;;5011194;28;20447;-79
2022/11/21 09:26:07;;;;;;;4.38;1.25;;;7.40;1.00;;;;;;5012428;28;20030;-80
2022/11/21 09:28:34;;;;;;;3.97;0.95;;;7.50;1.00;;;;;;4993669;28;20033;-79
2022/11/21 09:31:04;;;;;;;4.60;1.40;;;7.60;1.00;;;;;;4974801;28;20049;-77
2022/11/21 09:33:31;;;;;;;3.53;1.30;;;7.80;1.00;;;;;;4996940;28;20052;-79
2022/11/21 09:35:58;;;;;;;17.90;11.07;;;7.90;1.00;;;;;;4994693;28;20017;-77
2022/11/21 09:38:25;;;;;;;5.20;1.90;;;8.00;1.00;;;;;;4994537;28;20030;-77
2022/11/21 09:40:59;;;;;;;5.07;2.30;;;8.20;1.00;;;;;;5012957;28;20030;-81
2022/11/21 09:44:00;;;;;;;4.60;2.22;;;8.40;1.00;;;;;;4994282;28;20049;-76
2022/11/21 09:46:30;;;;;;;;;;;8.50;1.00;;;;;;5013539;28;20030;-77
2022/11/21 09:49:01;;;;;;;8.00;1.48;;;8.50;1.00;;;;;;5019613;28;19916;-80
2022/11/21 09:51:30;;;;;;;11.35;4.68;;;8.40;1.00;;;;;;4997229;28;20494;-80
2022/11/21 09:54:16;;;;;;;7.20;2.45;;;8.40;1.00;;;;;;4996305;28;20036;-81
2022/11/21 09:56:43;;;;;;;8.07;2.97;;;8.50;1.00;;;;;;4992384;28;20041;-81
2022/11/21 09:59:21;;;;;;;14.55;4.40;;;8.50;1.00;;;;;;4996091;28;20028;-81
2022/11/21 10:01:47;;;;;;;9.77;5.20;;;8.60;1.00;;;;;;4980713;28;20041;-81
2022/11/21 10:04:14;;;;;;;14.70;7.07;;;8.60;1.00;;;;;;4979097;28;20041;-81
2022/11/21 10:06:53;;;;;;;7.53;3.45;;;8.60;1.00;;;;;;5012995;28;20034;-81
2022/11/21 10:09:57;;;;;;;9.80;3.25;;;8.50;1.00;;;;;;4995527;28;20046;-81
2022/11/21 10:12:37;;;;;;;8.90;2.55;;;8.50;1.00;;;;;;4978940;28;20041;-81
2022/11/21 10:15:22;;;;;;;5.90;1.67;;;8.70;1.00;;;;;;5013137;28;20034;-81
2022/11/21 10:18:27;;;;;;;7.43;1.50;;;8.80;1.00;;;;;;4991869;28;20041;-82
2022/11/21 10:21:15;;;;;;;7.30;2.22;;;8.90;1.00;;;;;;4979557;28;20026;-82
2022/11/21 10:23:52;;;;;;;9.40;2.55;;;9.10;1.00;;;;;;5014328;28;20080;-82
2022/11/21 10:26:40;;;;;;;5.82;2.00;;;9.10;1.00;;;;;;5017648;28;20026;-80
2022/11/21 10:29:18;;;;;;;9.57;2.25;;;9.20;1.00;;;;;;4999327;28;20030;-83
2022/11/21 10:31:45;;;;;;;10.57;2.95;;;9.10;1.00;;;;;;4992561;28;20038;-80
2022/11/21 10:34:19;;;;;;;6.35;2.03;;;9.10;1.00;;;;;;5001039;28;20034;-83
2022/11/21 10:37:00;;;;;;;7.90;2.13;;;9.40;1.00;;;;;;5021828;28;20033;-85
2022/11/21 10:39:58;;;;;;;3.72;0.98;;;9.60;1.00;;;;;;5016209;28;20018;-83
2022/11/21 10:42:37;;;;;;;3.47;0.90;;;9.80;1.00;;;;;;4995541;28;20049;-82
2022/11/21 10:45:16;;;;;;;5.43;0.85;;;10.00;1.00;;;;;;4997999;28;20049;-82
2022/11/21 10:47:44;;;;;;;7.68;1.30;;;9.60;1.00;;;;;;4980767;28;20089;-84
2022/11/21 10:50:37;;;;;;;8.05;1.45;;;9.50;1.00;;;;;;4998825;28;20022;-83
2022/11/21 10:56:16;;;;;;;6.72;1.05;;;9.10;1.00;;;;;;5001122;28;20048;-79
2022/11/21 10:58:48;;;;;;;6.15;2.25;;;9.20;1.00;;;;;;4999052;28;20037;-81
2022/11/21 11:01:23;;;;;;;5.55;2.45;;;9.20;1.00;;;;;;5014819;28;20459;-83
2022/11/21 11:04:11;;;;;;;8.10;1.60;;;9.40;1.00;;;;;;5014707;28;20026;-78
2022/11/21 11:06:39;;;;;;;5.57;1.00;;;9.50;1.00;;;;;;4996455;28;20044;-79
2022/11/21 11:09:06;;;;;;;4.05;1.50;;;9.30;1.00;;;;;;4999338;28;20030;-85
2022/11/21 11:11:33;;;;;;;5.43;1.15;;;9.10;1.00;;;;;;4980949;28;20390;-81
2022/11/21 11:14:11;;;;;;;3.15;1.05;;;8.90;1.00;;;;;;4997578;28;20435;-82
2022/11/21 11:16:45;;;;;;;3.95;1.48;;;8.70;1.00;;;;;;5014345;28;20371;-81
2022/11/21 11:19:11;;;;;;;3.65;0.90;;;8.60;1.00;;;;;;5018604;28;20029;-82
2022/11/21 11:21:40;;;;;;;3.03;0.95;;;8.50;1.00;;;;;;5018448;28;20029;-81
2022/11/21 11:24:09;;;;;;;3.00;1.05;;;8.50;1.00;;;;;;5023309;28;20037;-81
2022/11/21 11:27:01;;;;;;;5.85;1.15;;;8.50;1.00;;;;;;5020933;28;20068;-81
2022/11/21 11:29:34;;;;;;;5.20;2.13;;;8.80;1.00;;;;;;4995237;28;20034;-82
2022/11/21 11:32:04;;;;;;;4.82;1.00;;;9.10;1.00;;;;;;4997681;28;20379;-82
2022/11/21 11:34:52;;;;;;;7.45;1.05;;;9.30;1.00;;;;;;4996812;28;20037;-82
2022/11/21 11:37:39;;;;;;;4.35;0.90;;;9.40;1.00;;;;;;4996989;28;20037;-80
2022/11/21 11:40:21;;;;;;;4.32;0.98;;;9.70;1.00;;;;;;4980769;28;20048;-80
2022/11/21 11:49:00;;;;;;;6.70;1.20;;;10.30;1.00;;;;;;4996154;28;20057;-82
2022/11/21 11:51:41;;;;;;;4.90;1.48;;;10.30;1.00;;;;;;4996818;28;20038;-80
2022/11/21 11:54:16;;;;;;;2.17;0.77;;;10.50;1.00;;;;;;5013919;28;20379;-81
2022/11/21 11:56:43;;;;;;;7.80;1.10;;;10.40;1.00;;;;;;5013010;28;20038;-83
2022/11/21 11:59:27;;;;;;;3.90;1.05;;;10.40;1.00;;;;;;4998602;28;20042;-80
2022/11/21 12:01:59;;;;;;;3.65;1.10;;;10.30;1.00;;;;;;4998503;28;20046;-80
2022/11/21 12:04:32;;;;;;;8.80;2.40;;;10.40;1.00;;;;;;5009300;28;20038;-82
2022/11/21 12:07:18;;;;;;;6.00;1.35;;;10.70;1.00;;;;;;5002498;28;20046;-81
2022/11/21 12:10:05;;;;;;;5.55;1.10;;;11.00;1.00;;;;;;5013485;28;20037;-82
2022/11/21 12:12:37;;;;;;;4.07;1.15;;;11.20;1.00;;;;;;4995618;28;20463;-81
2022/11/21 12:18:18;;;;;;;4.32;1.00;;;10.70;1.00;;;;;;4995348;28;20321;-81
2022/11/21 12:20:59;;;;;;;3.75;0.98;;;10.60;1.00;;;;;;4993172;28;20053;-82
2022/11/21 12:23:32;;;;;;;6.80;1.15;;;10.40;1.00;;;;;;4995434;28;20037;-82
2022/11/21 12:26:35;;;;;;;4.15;0.77;;;10.10;1.00;;;;;;4997634;28;20038;-85
2022/11/21 12:29:11;;;;;;;6.90;1.60;;;9.90;1.00;;;;;;4995529;28;20049;-83
2022/11/21 12:31:58;;;;;;;4.25;0.90;;;9.80;1.00;;;;;;4980146;28;20037;-90
2022/11/21 12:34:43;;;;;;;9.55;1.55;;;9.80;1.00;;;;;;5014782;28;20061;-89
2022/11/21 12:37:15;;;;;;;4.45;1.83;;;9.90;1.00;;;;;;4997113;28;20037;-89
2022/11/21 12:40:11;;;;;;;4.47;1.00;;;9.80;1.00;;;;;;4996145;28;20479;-90
2022/11/21 12:43:00;;;;;;;6.68;2.35;;;9.80;1.00;;;;;;4995680;28;20471;-88
2022/11/21 12:45:42;;;;;;;6.03;2.15;;;9.90;1.00;;;;;;4996509;28;20045;-88
2022/11/21 12:54:30;;;;;;;12.27;6.63;;;10.20;1.00;;;;;;5013226;28;20056;-86
2022/11/21 12:57:13;;;;;;;5.85;2.05;;;10.40;1.00;;;;;;4975043;28;20484;-85
2022/11/21 13:00:19;;;;;;;7.10;2.38;;;10.60;1.00;;;;;;4990697;28;20038;-85
2022/11/21 13:03:16;;;;;;;5.93;2.72;;;10.60;1.00;;;;;;4978548;28;20046;-85
2022/11/21 13:05:46;;;;;;;8.68;1.08;;;10.60;1.00;;;;;;4976209;28;20034;-84
2022/11/21 13:08:18;;;;;;;4.22;1.13;;;10.50;1.00;;;;;;4993388;28;20046;-84
2022/11/21 13:14:31;;;;;;;4.93;0.90;;;10.30;1.00;;;;;;4993218;28;20034;-84
2022/11/21 13:17:15;;;;;;;7.93;1.08;;;10.20;1.00;;;;;;4986728;28;20499;-83
2022/11/21 13:20:08;;;;;;;5.03;1.80;;;10.10;1.00;;;;;;4992636;28;20055;-83
2022/11/21 13:22:34;;;;;;;4.38;1.25;;;10.00;1.00;;;;;;4974505;28;20042;-84
2022/11/21 13:25:10;;;;;;;3.70;1.30;;;9.90;1.00;;;;;;4959388;28;20050;-83
2022/11/21 13:27:41;;;;;;;4.68;1.08;;;9.70;1.00;;;;;;4959587;28;20057;-82
2022/11/21 13:30:10;;;;;;;6.47;1.33;;;9.60;1.00;;;;;;4996056;28;20046;-85
2022/11/21 13:32:53;;;;;;;4.85;1.30;;;9.60;1.00;;;;;;4995175;28;20045;-82
2022/11/21 13:35:19;;;;;;;6.03;3.28;;;9.70;1.00;;;;;;4992120;28;20039;-84
2022/11/21 13:37:48;;;;;;;9.25;5.05;;;9.70;1.00;;;;;;4974196;28;20039;-84
2022/11/21 13:40:26;;;;;;;8.43;4.15;;;9.80;1.00;;;;;;4959785;28;20399;-85
2022/11/21 13:43:08;;;;;;;10.13;5.47;;;10.00;1.00;;;;;;4958363;28;20052;-83
2022/11/21 13:45:42;;;;;;;5.80;2.95;;;10.10;1.00;;;;;;4958268;28;20042;-82
2022/11/21 13:48:27;;;;;;;3.30;1.52;;;10.20;1.00;;;;;;4992636;28;20045;-84
2022/11/21 13:51:02;;;;;;;4.43;1.23;;;10.30;1.00;;;;;;4974454;28;20127;-83